Nearby METAR Reports for Burr Ridge, IL

 

KMDW - Chicago, Illinois, USA
Distance from station: ENE 8mi, 13km
Updated: Fri, 20-Apr-2018 10:53pm MST
Overcast
Overcast
 Wind from E
Wind: E 6 mph , 9 km/h
Temperature: 43°F , 6°C
Wind Chill: 39°F , 4°C
Dew Point: 19°F , -7°C
Humidity: 39%
Barometer: 30.45 inHg , 1031.2 hPa
Clouds: Overcast
Visibility: 10 miles , 16 km
Cloud details: Overcast 25000 ft
2018/04/21 05:53 KMDW 210553Z 09005KT 10SM OVC250 06/M07 A3045 RMK AO2 SLP314 T00611072 10117 20061 401610006 50000
KLOT - Romeoville/Chi, Illinois, USA
Distance from station: SW 15mi, 24km
Updated: Fri, 20-Apr-2018 10:55pm MST
Clear
Clear
 Wind from ENE
Wind: ENE 7 mph , 11 km/h
Temperature: 39°F , 4°C
Wind Chill: 34°F , 1°C
Dew Point: 19°F , -7°C
Humidity: 45%
Barometer: 30.43 inHg , 1030.5 hPa
Clouds: Clear
Visibility: 10 miles , 16 km
2018/04/21 05:55 KLOT 210555Z AUTO 07006KT 10SM CLR 04/M07 A3043 RMK AO2 T00421071 10114 20042 401611015
 
KORD - Chicago O'hare, Illinois, USA
Distance from station: N 16mi, 25km
Updated: Fri, 20-Apr-2018 10:51pm MST
Mostly cloudy
Mostly cloudy
 Wind from E
Wind: E 3 mph , 6 km/h
Temperature: 43°F , 6°C
Dew Point: 19°F , -7°C
Humidity: 39%
Barometer: 30.44 inHg , 1030.8 hPa
Clouds: Mostly cloudy
Visibility: 10 miles , 16 km
Cloud details: Mostly cloudy 25000 ft
2018/04/21 05:51 KORD 210551Z 09003KT 10SM BKN250 06/M07 A3044 RMK AO2 SLP309 T00611072 10117 20061 401610022 56001
KDPA - Chicago/Dupage, Illinois, USA
Distance from station: WNW 21mi, 34km
Updated: Fri, 20-Apr-2018 10:52pm MST
Clear
Clear
 Wind from calm
Wind: Calm
Temperature: 37°F , 3°C
Dew Point: 23°F , -5°C
Humidity: 56%
Barometer: 30.43 inHg , 1030.5 hPa
Clouds: Clear
Visibility: 10 miles , 16 km
2018/04/21 05:52 KDPA 210552Z 00000KT 10SM CLR 03/M05 A3043 RMK AO2 SLP309 T00331050 10122 20022 401671039 58001
 
KJOT - Joliet, Illinois, USA
Distance from station: SW 22mi, 36km
Updated: Fri, 20-Apr-2018 10:55pm MST
Clear
Clear
 Wind from E
Wind: E 5 mph , 7 km/h
Temperature: 43°F , 6°C
Wind Chill: 40°F , 4°C
Dew Point: 19°F , -7°C
Humidity: 39%
Barometer: 30.44 inHg , 1030.8 hPa
Clouds: Clear
Visibility: 10 miles , 16 km
2018/04/21 05:55 KJOT 210555Z AUTO 09004KT 10SM CLR 06/M07 A3044 RMK AO2 T00641071 10133 20061 401671035
KIGQ - Chicago/Lansing, Illinois, USA
Distance from station: SE 24mi, 39km
Updated: Fri, 20-Apr-2018 10:55pm MST
Clear
Clear
 Wind from calm
Wind: Calm
Temperature: 37°F , 3°C
Dew Point: 28°F , -2°C
Humidity: 70%
Barometer: 30.45 inHg , 1031.2 hPa
Clouds: Clear
Visibility: 10 miles , 16 km
2018/04/21 05:55 KIGQ 210555Z AUTO 00000KT 10SM CLR 03/M02 A3045 RMK AO2 T00271016 10107 20017 401451034
 
KPWK - Palwaukee, Illinois, USA
Distance from station: N 25mi, 40km
Updated: Fri, 20-Apr-2018 10:52pm MST
Clear
Clear
 Wind from calm
Wind: Calm
Temperature: 37°F , 3°C
Dew Point: 19°F , -7°C
Humidity: 48%
Barometer: 30.46 inHg , 1031.5 hPa
Clouds: Clear
Visibility: 10 miles , 16 km
2018/04/21 05:52 KPWK 210552Z AUTO 00000KT 10SM CLR 03/M07 A3046 RMK AO2 SLP318 T00331067 10117 20033 401561017 56002
KGYY - Gary Regional, Indiana, USA
Distance from station: ESE 27mi, 43km
Updated: Fri, 20-Apr-2018 10:55pm MST
Clear
Clear
 Wind from calm
Wind: Calm
Temperature: 36°F , 2°C
Dew Point: 27°F , -3°C
Humidity: 70%
Barometer: 30.45 inHg , 1031.2 hPa
Clouds: Clear
Visibility: 10 miles , 16 km
2018/04/21 05:55 KGYY 210555Z AUTO 00000KT 10SM CLR 02/M03 A3045 RMK AO2 T00161031 10101 20015 401321020
 
KARR - Chicago/Aurora, Illinois, USA
Distance from station: W 30mi, 48km
Updated: Fri, 20-Apr-2018 10:52pm MST
Clear
Clear
 Wind from ENE
Wind: ENE 5 mph , 7 km/h
Temperature: 43°F , 6°C
Wind Chill: 40°F , 4°C
Dew Point: 18°F , -8°C
Humidity: 36%
Barometer: 30.43 inHg , 1030.5 hPa
Clouds: Clear
Visibility: 10 miles , 16 km
2018/04/21 05:52 KARR 210552Z AUTO 06004KT 10SM CLR 06/M08 A3043 RMK AO2 SLP306 T00561078 10144 20039 401611050 58002
KC09 - Morris-Washburn, Illinois, USA
Distance from station: SW 35mi, 56km
Updated: Fri, 20-Apr-2018 10:55pm MST
Clear
Clear
 Wind from calm
Wind: Calm
Temperature: 41°F , 5°C
Dew Point: 21°F , -6°C
Humidity: 45%
Barometer: 30.43 inHg , 1030.5 hPa
Clouds: Clear
Visibility: 10 miles , 16 km
2018/04/21 05:55 KC09 210555Z AUTO 00000KT 10SM CLR 05/M06 A3043 RMK AO2 T00481060 10144 20040 401651030
 
KDKB - De Kalb, Illinois, USA
Distance from station: WNW 43mi, 69km
Updated: Fri, 20-Apr-2018 10:55pm MST
Clear
Clear
 Wind from E
Wind: E 6 mph , 9 km/h
Temperature: 41°F , 5°C
Wind Chill: 37°F , 3°C
Dew Point: 16°F , -9°C
Humidity: 36%
Barometer: 30.44 inHg , 1030.8 hPa
Clouds: Clear
Visibility: 10 miles , 16 km
2018/04/21 05:55 KDKB 210555Z AUTO 09005KT 10SM CLR 05/M09 A3044 RMK AO2 T00461089 10127 20045 401541012
KUGN - Waukegan, Illinois, USA
Distance from station: N 46mi, 73km
Updated: Fri, 20-Apr-2018 10:55pm MST
Clear
Clear
 Wind from calm
Wind: Calm
Temperature: 30°F , -1°C
Dew Point: 21°F , -6°C
Humidity: 69%
Barometer: 30.44 inHg , 1030.8 hPa
Clouds: Clear
Visibility: 10 miles , 16 km
2018/04/21 05:55 KUGN 210555Z AUTO 00000KT 10SM CLR M01/M06 A3044 RMK AO2 SLP315 T10061056 10078 21017 401171028 58001
 
KIKK - Kankakee, Illinois, USA
Distance from station: S 48mi, 77km
Updated: Fri, 20-Apr-2018 10:55pm MST
Clear
Clear
 Wind from calm
Wind: Calm
Temperature: 41°F , 5°C
Dew Point: 21°F , -6°C
Humidity: 45%
Barometer: 30.44 inHg , 1030.8 hPa
Clouds: Clear
Visibility: 10 miles , 16 km
2018/04/21 05:55 KIKK 210555Z AUTO 00000KT 10SM CLR 05/M06 A3044 RMK AO2 T00481064 10127 20046 401641025